Weather in selectable METAR weather stations

1) Select the Continent / Group:

[Europe]  [Asia]  [Africa]  [North America]  [South America]  
[Central America and Caribbean]  [Oceania]  [Antarctica]  
2) Select the Weather station (City):


METAR = DAUA 181700Z 35005KT CAVOK 18/M03 Q1015

STATIONDAUA
NAMEAdrar/Belkebir Arpt, --, AL
OBSERVED18.11.2019 18:00 (18.11.2019 17:00 UTC), 49 min ago
TEMPERATURE18.0°C ( 64°F)
WINDN (350 degrees) at 6 MPH (5 knots; 2.6 m/s)
HUMIDITY24%
PRESSURE1014.9 hPa
Click here to search the weather station or to give the station identifier
(four-character ICAO Location Indicator) for weather data.